Time;durP1;ratioP1;P1;durP2;ratioP2;P2;SDS_P1;SDS_P2;PMS_P1;PMS_P2;Temp;Humidity;BMP_temperature;BMP_pressure;BME280_temperature;BME280_humidity;BME280_pressure;Samples;Min_cycle;Max_cycle;Signal;HPM_P1;HPM_P2
2021/12/13 00:02:15;;;;;;;;;15.33;11.33;;;;;12.02;75.34;102371.91;4936410;28;45656;-96
2021/12/13 00:05:08;;;;;;;;;14.67;13.67;;;;;11.83;74.61;102336.47;4920322;28;45285;-95
2021/12/13 00:07:42;;;;;;;;;15.33;14.00;;;;;11.81;75.13;102343.34;4903254;28;45482;-95
2021/12/13 00:10:17;;;;;;;;;16.00;16.00;;;;;11.96;75.11;102353.06;4946592;28;45261;-93
2021/12/13 00:12:49;;;;;;;;;22.33;16.00;;;;;11.90;75.28;102345.69;4951696;28;44993;-95
2021/12/13 00:15:25;;;;;;;;;20.00;18.33;;;;;11.84;74.74;102335.66;4957558;28;47347;-96
2021/12/13 00:17:52;;;;;;;;;18.67;13.33;;;;;11.71;75.47;102314.63;4965273;28;45170;-95
2021/12/13 00:20:28;;;;;;;;;18.00;16.67;;;;;11.94;74.82;102350.34;4928470;28;45404;-96
2021/12/13 00:22:56;;;;;;;;;14.67;12.33;;;;;11.85;75.40;102334.84;4923776;28;45414;-95
2021/12/13 00:25:27;;;;;;;;;16.33;13.67;;;;;11.88;75.43;102336.75;4935595;28;48105;-95
2021/12/13 00:28:18;;;;;;;;;15.00;14.00;;;;;11.90;75.03;102339.50;4919812;28;45721;-95
2021/12/13 00:31:01;;;;;;;;;13.00;13.00;;;;;11.88;74.95;102338.50;4934695;28;45569;-96
2021/12/13 00:33:45;;;;;;;;;13.67;12.33;;;;;11.79;75.19;102326.56;4945821;28;45616;-95
2021/12/13 00:36:24;;;;;;;;;16.67;13.67;;;;;11.89;75.46;102340.31;4942026;28;47116;-95
2021/12/13 00:38:54;;;;;;;;;16.00;13.00;;;;;11.69;75.00;102303.09;4939135;28;45449;-95
2021/12/13 00:41:26;;;;;;;;;12.33;10.00;;;;;11.88;74.88;102338.50;4942393;28;45500;-96
2021/12/13 00:44:04;;;;;;;;;14.00;11.67;;;;;11.65;75.39;102306.34;4942262;28;45382;-96
2021/12/13 00:46:30;;;;;;;;;18.33;12.33;;;;;11.89;75.47;102350.84;4923323;28;47059;-96
2021/12/13 00:48:57;;;;;;;;;8.33;8.33;;;;;11.66;75.40;102302.88;4939086;28;45571;-96
2021/12/13 00:51:32;;;;;;;;;12.00;10.67;;;;;11.79;75.57;102317.75;4949345;28;45412;-95
2021/12/13 00:54:12;;;;;;;;;13.33;11.00;;;;;11.83;75.31;102330.28;4958263;28;45845;-96
2021/12/13 00:57:07;;;;;;;;;17.00;13.67;;;;;11.91;75.29;102344.88;4940306;28;47331;-96
2021/12/13 00:59:35;;;;;;;;;12.67;11.67;;;;;11.74;75.09;102320.09;4939241;28;45509;-95
2021/12/13 01:02:14;;;;;;;;;12.00;12.00;;;;;11.72;75.55;102319.06;4947363;28;45501;-96
2021/12/13 01:04:52;;;;;;;;;12.67;9.00;;;;;11.88;75.38;102339.38;4945510;28;45509;-96
2021/12/13 01:07:18;;;;;;;;;11.67;10.67;;;;;11.87;74.37;102341.94;4957419;28;47166;-96
2021/12/13 01:10:20;;;;;;;;;9.00;7.67;;;;;11.91;74.62;102349.22;4941938;28;45555;-95
2021/12/13 01:12:49;;;;;;;;;13.67;11.67;;;;;11.77;75.35;102322.94;4941703;28;45529;-96
2021/12/13 01:15:28;;;;;;;;;9.67;8.33;;;;;11.76;75.65;102315.81;4958155;28;51069;-96
2021/12/13 01:18:16;;;;;;;;;12.33;9.33;;;;;11.77;74.82;102320.28;4941210;28;47047;-96
2021/12/13 01:21:00;;;;;;;;;12.00;10.00;;;;;11.69;74.69;102308.34;4951560;28;45481;-96
2021/12/13 01:23:41;;;;;;;;;8.00;8.00;;;;;11.85;75.51;102336.59;4926445;28;45469;-96
2021/12/13 01:26:28;;;;;;;;;9.33;8.33;;;;;11.66;75.42;102300.25;4956932;28;45626;-96
2021/12/13 01:29:08;;;;;;;;;9.00;8.00;;;;;11.78;75.54;102327.34;4923107;28;47371;-95
2021/12/13 01:31:39;;;;;;;;;9.33;9.33;;;;;11.67;75.38;102308.25;4951380;28;45706;-96
2021/12/13 01:34:08;;;;;;;;;12.00;10.33;;;;;11.77;75.26;102329.91;4907133;28;45349;-96
2021/12/13 01:36:44;;;;;;;;;10.67;10.67;;;;;11.68;75.67;102311.78;4922250;28;45405;-96
2021/12/13 01:39:30;;;;;;;;;10.67;10.00;;;;;11.66;75.46;102319.56;4931231;28;47456;-95
2021/12/13 01:42:07;;;;;;;;;7.67;5.67;;;;;11.84;75.19;102356.72;4938125;28;46340;-96
2021/12/13 01:44:36;;;;;;;;;11.67;9.00;;;;;11.75;74.87;102344.69;4924526;28;45586;-95
2021/12/13 01:47:07;;;;;;;;;11.33;11.00;;;;;11.69;75.39;102340.84;4938077;28;45572;-96
2021/12/13 01:49:37;;;;;;;;;10.00;9.67;;;;;11.71;75.18;102347.09;4932437;28;48499;-94
2021/12/13 01:52:17;;;;;;;;;7.67;7.33;;;;;11.68;75.63;102341.63;4940189;28;46010;-95
2021/12/13 01:54:43;;;;;;;;;11.67;8.67;;;;;11.66;75.36;102337.06;4936843;28;45462;-95
2021/12/13 01:59:52;;;;;;;;;8.00;8.00;;;;;11.68;75.17;102339.00;4939586;28;45461;-95
2021/12/13 02:02:38;;;;;;;;;8.67;8.33;;;;;11.55;75.89;102318.84;4937942;28;45761;-96
2021/12/13 02:05:09;;;;;;;;;10.67;9.00;;;;;11.75;75.50;102348.19;4937598;28;45496;-95
2021/12/13 02:07:48;;;;;;;;;9.67;6.00;;;;;11.55;75.52;102312.69;4940535;28;45419;-96
2021/12/13 02:10:29;;;;;;;;;12.67;9.33;;;;;11.76;75.92;102360.56;4938091;28;48283;-95
2021/12/13 02:13:01;;;;;;;;;9.67;8.00;;;;;11.55;75.46;102317.94;4921894;28;45433;-95
2021/12/13 02:18:22;;;;;;;;;9.00;8.00;;;;;11.65;75.61;102337.91;4939038;28;45244;-95
2021/12/13 02:21:06;;;;;;;;;7.33;6.67;;;;;11.46;75.50;102313.00;4940244;28;47110;-95
2021/12/13 02:23:37;;;;;;;;;11.00;10.33;;;;;11.53;75.25;102331.00;4950967;28;45740;-96
2021/12/13 02:26:05;;;;;;;;;12.00;10.00;;;;;11.56;75.55;102339.09;4935877;28;45559;-95
2021/12/13 02:28:35;;;;;;;;;9.33;6.67;;;;;11.51;75.64;102338.78;4918067;28;45552;-96
2021/12/13 02:31:09;;;;;;;;;9.00;7.67;;;;;11.66;75.36;102368.63;4929549;28;47660;-96
2021/12/13 02:33:45;;;;;;;;;9.33;9.33;;;;;11.50;75.15;102336.97;4942376;28;45313;-95
2021/12/13 02:36:15;;;;;;;;;10.00;9.00;;;;;11.53;75.71;102338.88;4952970;28;45553;-95
2021/12/13 02:38:47;;;;;;;;;9.00;7.33;;;;;11.52;75.25;102342.31;4949982;28;45377;-96
2021/12/13 02:41:15;;;;;;;;;9.67;8.67;;;;;11.46;75.44;102324.44;4936682;28;48418;-95
2021/12/13 02:43:45;;;;;;;;;14.00;11.33;;;;;11.63;75.63;102356.19;4953089;28;46198;-94
2021/12/13 02:46:11;;;;;;;;;9.00;9.00;;;;;11.55;75.82;102342.53;4952625;28;45640;-96
2021/12/13 02:48:47;;;;;;;;;11.00;8.33;;;;;11.37;75.90;102303.66;4937088;28;47256;-95
2021/12/13 02:51:25;;;;;;;;;13.33;12.00;;;;;11.58;75.63;102340.09;4936694;28;47675;-95
2021/12/13 02:53:56;;;;;;;;;10.33;8.33;;;;;11.54;75.91;102326.66;4936519;28;45271;-95
2021/12/13 02:56:28;;;;;;;;;9.00;9.00;;;;;11.43;75.58;102311.06;4952920;28;45328;-96
2021/12/13 02:58:56;;;;;;;;;11.50;9.50;;;;;11.56;75.14;102340.81;4917983;28;45439;-96
2021/12/13 03:01:29;;;;;;;;;12.33;11.00;;;;;11.50;75.44;102331.69;4934791;28;47309;-95
2021/12/13 03:03:58;;;;;;;;;11.00;11.00;;;;;11.48;76.07;102333.31;4936425;28;46551;-96
2021/12/13 03:06:30;;;;;;;;;10.00;10.00;;;;;11.60;75.43;102342.81;4936276;28;45274;-95
2021/12/13 03:09:01;;;;;;;;;11.00;10.00;;;;;11.42;75.85;102313.56;4933550;28;45472;-96
2021/12/13 03:11:32;;;;;;;;;13.67;11.33;;;;;11.62;75.66;102347.38;4937202;28;47933;-96
2021/12/13 03:14:06;;;;;;;;;9.00;7.67;;;;;11.51;75.92;102322.09;4935947;28;45620;-96
2021/12/13 03:16:41;;;;;;;;;7.33;7.33;;;;;11.50;75.71;102329.06;4917465;28;45357;-96
2021/12/13 03:19:11;;;;;;;;;11.00;8.67;;;;;11.46;75.96;102316.53;4951475;28;45734;-95
2021/12/13 03:22:06;;;;;;;;;10.67;10.00;;;;;11.66;75.98;102351.13;4936179;28;47062;-96
2021/12/13 03:24:35;;;;;;;;;11.00;10.00;;;;;11.61;75.34;102335.06;4952127;28;46089;-95
2021/12/13 03:27:03;;;;;;;;;11.67;10.67;;;;;11.64;74.64;102331.72;4936475;28;45278;-96
2021/12/13 03:29:34;;;;;;;;;9.00;7.67;;;;;11.59;74.62;102336.69;4936782;28;45461;-95
2021/12/13 03:32:00;;;;;;;;;10.67;9.00;;;;;11.36;75.18;102304.50;4941487;28;47445;-95
2021/12/13 03:34:35;;;;;;;;;11.00;8.33;;;;;11.31;75.76;102295.38;4918438;28;45352;-95
2021/12/13 03:37:22;;;;;;;;;9.33;8.67;;;;;11.35;74.91;102302.66;4940984;28;45380;-96
2021/12/13 03:39:59;;;;;;;;;11.33;9.00;;;;;11.44;75.93;102330.38;4944790;28;45383;-95
2021/12/13 03:42:32;;;;;;;;;10.67;10.67;;;;;11.40;75.70;102317.03;4943957;28;47369;-95
2021/12/13 03:45:11;;;;;;;;;12.00;10.67;;;;;11.53;75.31;102322.19;4944461;28;45775;-95
2021/12/13 03:47:40;;;;;;;;;10.00;8.00;;;;;11.31;75.08;102291.84;4933475;28;45523;-94
2021/12/13 03:50:15;;;;;;;;;16.00;13.00;;;;;11.34;75.62;102292.94;4933433;28;45574;-96
2021/12/13 03:52:44;;;;;;;;;11.67;10.33;;;;;11.29;75.35;102282.13;4935626;28;48249;-94
2021/12/13 03:55:12;;;;;;;;;9.00;7.33;;;;;11.29;75.62;102276.84;4952364;28;45395;-94
2021/12/13 03:57:44;;;;;;;;;10.00;9.33;;;;;11.35;75.06;102285.97;4952333;28;45408;-95
2021/12/13 04:00:15;;;;;;;;;11.00;11.00;;;;;11.38;75.13;102297.63;4958681;28;44937;-93
2021/12/13 04:02:41;;;;;;;;;11.00;9.33;;;;;11.43;75.07;102312.78;4960887;28;47300;-96
2021/12/13 04:05:19;;;;;;;;;11.00;10.67;;;;;11.30;75.34;102283.03;4956286;28;44831;-95
2021/12/13 04:07:52;;;;;;;;;10.67;9.67;;;;;11.38;75.27;102305.50;4947845;28;44885;-95
2021/12/13 04:10:19;;;;;;;;;11.67;9.00;;;;;11.54;75.50;102321.41;4960785;28;45017;-95
2021/12/13 04:12:49;;;;;;;;;13.00;9.67;;;;;11.33;75.34;102291.13;4941289;28;47359;-96
2021/12/13 04:15:24;;;;;;;;;11.67;10.00;;;;;11.44;75.16;102306.72;4942811;28;45787;-95
2021/12/13 04:18:12;;;;;;;;;10.33;9.67;;;;;11.36;75.35;102301.88;4936100;28;45451;-95
2021/12/13 04:20:39;;;;;;;;;9.67;8.33;;;;;11.30;75.28;102290.91;4952000;28;45463;-96
2021/12/13 04:23:07;;;;;;;;;14.00;10.33;;;;;11.51;75.62;102322.09;4935503;28;47072;-95
2021/12/13 04:25:40;;;;;;;;;12.33;9.67;;;;;11.51;75.23;102324.72;4951888;28;45599;-96
2021/12/13 04:28:20;;;;;;;;;10.67;9.00;;;;;11.47;75.62;102314.78;4953269;28;45350;-95
2021/12/13 04:30:56;;;;;;;;;10.67;9.67;;;;;11.32;75.08;102283.13;4937567;28;45385;-94
2021/12/13 04:33:27;;;;;;;;;13.00;10.00;;;;;11.56;75.26;102319.78;4932509;28;48671;-94
2021/12/13 04:35:58;;;;;;;;;10.67;8.67;;;;;11.47;75.33;102307.81;4932281;28;45447;-95
2021/12/13 04:38:31;;;;;;;;;10.67;9.67;;;;;11.51;75.57;102311.56;4949953;28;45396;-95
2021/12/13 04:40:57;;;;;;;;;17.67;11.67;;;;;11.47;74.82;102309.53;4951776;28;45288;-95
2021/12/13 04:43:23;;;;;;;;;14.67;10.00;;;;;11.46;74.94;102313.91;4900680;28;47178;-95
2021/12/13 04:45:55;;;;;;;;;15.00;11.00;;;;;11.41;75.13;102307.44;4916903;28;45571;-95
2021/12/13 04:48:25;;;;;;;;;15.33;11.33;;;;;11.40;75.25;102301.25;4949872;28;45604;-94
2021/12/13 04:51:03;;;;;;;;;11.00;9.33;;;;;11.37;75.06;102311.56;4944999;28;45265;-96
2021/12/13 04:53:37;;;;;;;;;10.67;10.67;;;;;11.34;74.72;102305.19;4905206;28;48360;-95
2021/12/13 04:56:10;;;;;;;;;12.00;11.67;;;;;11.20;74.48;102297.28;4937952;28;45497;-95
2021/12/13 04:58:37;;;;;;;;;15.00;11.00;;;;;11.28;74.82;102314.50;4920089;28;45290;-95
2021/12/13 05:01:06;;;;;;;;;10.67;7.33;;;;;11.23;74.55;102299.22;4911557;28;45575;-96
2021/12/13 05:03:38;;;;;;;;;12.67;10.33;;;;;11.42;75.25;102330.25;4954498;28;47278;-96
2021/12/13 05:06:33;;;;;;;;;12.00;11.00;;;;;11.25;74.89;102305.47;4932507;28;45662;-96
2021/12/13 05:09:00;;;;;;;;;10.00;8.33;;;;;11.39;75.20;102328.34;4941864;28;45556;-95
2021/12/13 05:11:32;;;;;;;;;11.00;8.67;;;;;11.36;74.36;102330.78;4919491;28;45590;-93
2021/12/13 05:13:59;;;;;;;;;9.67;9.67;;;;;11.34;74.08;102337.63;4903829;28;48054;-95
2021/12/13 05:16:37;;;;;;;;;7.67;7.67;;;;;11.41;74.48;102349.50;4943106;28;45547;-95
2021/12/13 05:19:05;;;;;;;;;8.00;8.00;;;;;11.24;74.74;102325.59;4920015;28;45402;-96
2021/12/13 05:21:36;;;;;;;;;11.33;9.67;;;;;11.38;74.34;102341.38;4925358;28;45310;-95
2021/12/13 05:24:09;;;;;;;;;11.33;10.00;;;;;11.18;74.64;102305.03;4903246;28;47931;-95
2021/12/13 05:26:45;;;;;;;;;14.67;9.33;;;;;11.39;74.65;102348.50;4928266;28;45619;-96
2021/12/13 05:29:33;;;;;;;;;12.00;10.00;;;;;11.25;74.76;102324.78;4939775;28;45623;-95
2021/12/13 05:32:05;;;;;;;;;11.67;10.00;;;;;11.21;74.76;102313.97;4929170;28;45691;-96
2021/12/13 05:34:45;;;;;;;;;13.33;10.00;;;;;11.21;74.50;102311.34;4959484;28;47182;-96
2021/12/13 05:37:10;;;;;;;;;11.33;11.00;;;;;11.37;75.33;102343.09;4957067;28;45517;-95
2021/12/13 05:39:53;;;;;;;;;12.67;11.00;;;;;11.34;74.28;102334.13;4937269;28;45288;-96
2021/12/13 05:42:18;;;;;;;;;11.00;11.00;;;;;11.21;74.70;102319.22;4940845;28;45504;-96
2021/12/13 05:44:45;;;;;;;;;11.67;11.00;;;;;11.25;74.88;102318.63;4941344;28;48370;-96
2021/12/13 05:47:27;;;;;;;;;10.00;10.00;;;;;11.29;75.22;102324.19;4947955;28;45512;-95
2021/12/13 05:49:59;;;;;;;;;11.00;9.33;;;;;11.36;75.25;102330.78;4938805;28;45305;-95
2021/12/13 05:52:38;;;;;;;;;8.33;8.33;;;;;11.45;73.76;102342.72;4957153;28;45444;-94
2021/12/13 05:55:12;;;;;;;;;12.33;9.67;;;;;11.42;74.25;102345.13;4950783;28;48328;-88
2021/12/13 05:57:43;;;;;;;;;11.67;9.33;;;;;11.33;74.08;102333.19;4954374;28;45481;-88
2021/12/13 06:00:33;;;;;;;;;10.33;9.33;;;;;11.38;74.54;102350.19;4955339;28;45515;-88
2021/12/13 06:03:04;;;;;;;;;13.33;12.00;;;;;11.39;74.94;102349.38;4954086;28;45695;-88
2021/12/13 06:05:44;;;;;;;;;9.67;9.67;;;;;11.34;74.77;102339.38;4955160;28;45502;-88
2021/12/13 06:08:15;;;;;;;;;10.00;8.67;;;;;11.38;74.19;102342.31;4943118;28;45813;-88
2021/12/13 06:10:46;;;;;;;;;10.33;9.67;;;;;11.34;74.53;102335.00;4937488;28;45524;-91
2021/12/13 06:13:23;;;;;;;;;9.67;6.33;;;;;11.39;73.97;102341.47;4953972;28;45483;-89
2021/12/13 06:15:50;;;;;;;;;9.00;9.00;;;;;11.38;73.62;102337.06;4952363;28;46878;-88
2021/12/13 06:18:21;;;;;;;;;12.33;9.33;;;;;11.33;73.61;102337.53;4952278;28;45487;-88
2021/12/13 06:21:12;;;;;;;;;11.00;11.00;;;;;11.33;74.32;102335.81;4937113;28;45456;-87
2021/12/13 06:23:38;;;;;;;;;13.00;13.00;;;;;11.33;73.41;102343.72;4935722;28;45877;-88
2021/12/13 06:26:08;;;;;;;;;6.00;5.00;;;;;11.26;73.93;102330.97;4954671;28;47654;-88
2021/12/13 06:28:53;;;;;;;;;12.00;11.00;;;;;11.27;72.76;102332.75;4938000;28;45773;-89
2021/12/13 06:31:21;;;;;;;;;9.00;6.50;;;;;11.22;73.16;102344.69;4952936;28;45365;-88
2021/12/13 06:34:04;;;;;;;;;10.33;8.00;;;;;11.19;73.11;102350.63;4953408;28;45338;-87
2021/12/13 06:36:48;;;;;;;;;12.00;10.00;;;;;11.17;74.10;102354.88;4952737;28;46544;-88
2021/12/13 06:39:27;;;;;;;;;16.00;9.67;;;;;11.21;74.37;102348.13;4953787;28;45504;-88
2021/12/13 06:41:59;;;;;;;;;12.67;10.67;;;;;11.21;74.26;102348.13;4946865;28;45772;-89
2021/12/13 06:44:29;;;;;;;;;11.00;9.33;;;;;11.20;74.05;102341.03;4938137;28;45687;-89
2021/12/13 06:47:18;;;;;;;;;10.33;10.33;;;;;11.21;73.54;102346.41;4933951;28;46613;-88
2021/12/13 06:49:53;;;;;;;;;8.33;7.67;;;;;11.21;72.75;102356.03;4955022;28;45449;-87
2021/12/13 06:52:32;;;;;;;;;10.33;9.33;;;;;11.14;72.86;102339.81;4952396;28;45561;-88
2021/12/13 06:55:11;;;;;;;;;9.00;9.00;;;;;11.20;73.89;102348.94;4953514;28;45661;-88
2021/12/13 06:57:40;;;;;;;;;14.33;11.33;;;;;11.20;73.85;102341.03;4943435;28;47598;-88
2021/12/13 07:00:23;;;;;;;;;14.67;9.67;;;;;11.22;73.36;102345.59;4953769;28;45344;-88
2021/12/13 07:02:58;;;;;;;;;8.33;8.33;;;;;11.19;73.72;102334.88;4953642;28;45594;-88
2021/12/13 07:05:43;;;;;;;;;11.33;10.00;;;;;11.23;73.84;102349.16;4933977;28;45600;-88
2021/12/13 07:08:25;;;;;;;;;10.00;10.00;;;;;11.22;73.59;102353.47;4934388;28;47566;-88
2021/12/13 07:10:55;;;;;;;;;13.67;10.67;;;;;11.23;73.62;102354.41;4954982;28;45478;-87
2021/12/13 07:13:32;;;;;;;;;10.33;10.33;;;;;11.25;73.87;102355.41;4936644;28;45384;-89
2021/12/13 07:16:07;;;;;;;;;8.00;8.00;;;;;11.26;73.63;102362.50;4953085;28;45480;-88
2021/12/13 07:18:52;;;;;;;;;15.00;11.00;;;;;11.27;73.49;102352.09;4954224;28;46412;-88
2021/12/13 07:21:21;;;;;;;;;12.67;10.33;;;;;11.28;72.80;102351.28;4952781;28;45430;-88
2021/12/13 07:24:16;;;;;;;;;11.00;11.00;;;;;11.28;73.43;102347.75;4953676;28;45663;-86
2021/12/13 07:26:55;;;;;;;;;8.67;8.67;;;;;11.28;72.70;102355.63;4940639;28;45781;-86
2021/12/13 07:29:28;;;;;;;;;11.67;8.00;;;;;11.24;73.26;102359.75;4935899;28;48454;-89
2021/12/13 07:32:20;;;;;;;;;12.33;11.00;;;;;11.25;73.69;102361.59;4948839;28;45558;-89
2021/12/13 07:35:20;;;;;;;;;8.00;7.33;;;;;11.33;73.77;102371.72;4939252;28;45346;-88
2021/12/13 07:37:51;;;;;;;;;8.67;8.00;;;;;11.34;73.26;102366.53;4934691;28;45388;-87
2021/12/13 07:40:34;;;;;;;;;4.67;4.67;;;;;11.35;72.01;102367.47;4952107;28;45754;-87
2021/12/13 07:43:06;;;;;;;;;6.00;4.67;;;;;11.32;72.52;102369.88;4934868;28;48536;-87
2021/12/13 07:46:09;;;;;;;;;5.00;5.00;;;;;11.34;73.04;102370.91;4953421;28;45614;-87
2021/12/13 07:48:34;;;;;;;;;5.00;5.00;;;;;11.37;73.34;102372.03;4949517;28;46130;-87
2021/12/13 07:51:05;;;;;;;;;5.00;5.00;;;;;11.40;72.48;102369.59;4955926;28;46177;-87
2021/12/13 07:54:14;;;;;;;;;6.33;4.00;;;;;11.38;72.88;102362.44;4953035;28;45351;-87
2021/12/13 07:57:14;;;;;;;;;4.00;4.00;;;;;11.43;72.71;102365.38;4882961;29;45526;-87
2021/12/13 07:59:39;;;;;;;;;4.00;4.00;;;;;11.43;73.27;102360.09;4867826;29;45578;-87
2021/12/13 08:02:09;;;;;;;;;5.67;5.67;;;;;11.46;72.77;102369.13;4876084;29;47424;-87
2021/12/13 08:04:47;;;;;;;;;9.00;6.00;;;;;11.45;72.90;102369.91;4871331;29;45670;-86
2021/12/13 08:07:53;;;;;;;;;6.67;6.33;;;;;11.45;72.89;102371.63;4860955;29;45561;-87
2021/12/13 08:10:30;;;;;;;;;8.00;8.00;;;;;11.47;72.85;102368.31;4877058;29;45610;-87
2021/12/13 08:12:57;;;;;;;;;5.00;5.00;;;;;11.47;72.32;102362.13;4876797;29;49590;-87
2021/12/13 08:15:29;;;;;;;;;4.33;4.33;;;;;11.48;71.90;102367.50;4875551;29;46101;-87
2021/12/13 08:18:02;;;;;;;;;4.67;4.00;;;;;11.47;72.64;102367.38;4865720;29;45593;-86
2021/12/13 08:20:35;;;;;;;;;4.00;4.00;;;;;11.51;73.08;102366.81;4875769;29;45403;-86
2021/12/13 08:23:04;;;;;;;;;5.00;4.00;;;;;11.52;72.98;102365.97;4873350;29;46426;-87
2021/12/13 08:25:37;;;;;;;;;3.00;3.00;;;;;11.56;72.66;102369.75;4874166;29;45459;-86
2021/12/13 08:28:15;;;;;;;;;4.67;3.67;;;;;11.57;72.85;102355.78;4909631;28;45508;-87
2021/12/13 08:30:50;;;;;;;;;5.00;5.00;;;;;11.66;72.44;102376.53;4944109;28;45881;-87
2021/12/13 08:33:35;;;;;;;;;4.33;4.33;;;;;11.65;72.22;102375.59;4945997;28;46621;-87
2021/12/13 08:36:12;;;;;;;;;5.00;5.00;;;;;11.69;72.81;102368.84;4954613;28;45459;-87
2021/12/13 08:38:44;;;;;;;;;8.33;6.00;;;;;11.72;73.17;102369.97;4925829;28;46327;-87
2021/12/13 08:41:22;;;;;;;;;11.00;8.00;;;;;11.77;72.84;102378.16;4933834;28;45550;-88
2021/12/13 08:43:57;;;;;;;;;8.67;6.00;;;;;11.79;72.40;102371.28;4956335;28;46387;-88
2021/12/13 08:46:42;;;;;;;;;4.67;4.00;;;;;11.80;70.87;102378.34;4942777;28;46156;-86
2021/12/13 08:49:22;;;;;;;;;4.00;4.00;;;;;11.79;71.85;102380.88;4935318;28;47616;-86
2021/12/13 08:51:58;;;;;;;;;8.33;5.67;;;;;11.75;71.21;102378.88;4954907;28;45481;-87
2021/12/13 08:54:40;;;;;;;;;8.00;8.00;;;;;11.69;69.67;102372.41;4936660;28;48521;-86
2021/12/13 08:57:39;;;;;;;;;13.67;11.67;;;;;11.69;71.74;102374.09;4934015;28;45510;-87
2021/12/13 09:00:14;;;;;;;;;9.00;9.00;;;;;11.72;70.69;102379.59;4938679;28;45605;-87
2021/12/13 09:03:08;;;;;;;;;8.00;7.67;;;;;11.72;72.30;102380.50;4950162;28;46057;-87
2021/12/13 09:05:50;;;;;;;;;7.33;7.33;;;;;11.79;72.11;102384.44;4940644;28;45396;-86
2021/12/13 09:08:17;;;;;;;;;12.00;10.00;;;;;11.86;71.71;102388.38;4952167;28;45476;-87
2021/12/13 09:10:52;;;;;;;;;13.33;13.00;;;;;11.87;71.45;102397.19;4943989;28;45372;-86
2021/12/13 09:13:35;;;;;;;;;12.67;10.00;;;;;11.86;71.22;102388.38;4952878;28;45523;-87
2021/12/13 09:16:01;;;;;;;;;13.00;10.00;;;;;11.89;71.50;102388.59;4939802;28;53650;-87
2021/12/13 09:18:26;;;;;;;;;11.00;9.33;;;;;11.90;71.43;102393.06;4953819;28;45301;-87
2021/12/13 09:20:54;;;;;;;;;9.00;9.00;;;;;11.91;72.44;102393.94;4951714;28;45623;-87
2021/12/13 09:23:28;;;;;;;;;7.67;7.67;;;;;11.94;71.84;102402.03;4941024;28;46028;-87
2021/12/13 09:26:14;;;;;;;;;9.00;7.33;;;;;11.98;71.00;102395.28;4948893;28;48098;-87
2021/12/13 09:28:51;;;;;;;;;10.67;7.33;;;;;12.02;71.88;102403.47;4959185;28;45483;-87
2021/12/13 09:31:32;;;;;;;;;10.33;7.33;;;;;12.04;71.28;102398.31;4940116;28;45990;-86
2021/12/13 09:34:19;;;;;;;;;6.00;6.00;;;;;12.03;71.25;102404.41;4958239;28;45599;-87
2021/12/13 09:36:49;;;;;;;;;10.00;6.67;;;;;11.99;71.41;102399.72;4952335;28;48095;-87
2021/12/13 09:39:20;;;;;;;;;9.00;6.00;;;;;12.01;71.51;102411.28;4956473;28;45289;-87
2021/12/13 09:41:57;;;;;;;;;6.00;5.33;;;;;12.02;71.67;102407.81;4956685;28;45569;-87
2021/12/13 09:44:31;;;;;;;;;10.67;7.67;;;;;12.02;70.54;102406.09;4956637;28;45608;-87
2021/12/13 09:47:07;;;;;;;;;12.00;10.33;;;;;11.99;71.17;102400.63;4954200;28;45483;-86
2021/12/13 09:49:38;;;;;;;;;13.33;10.67;;;;;12.04;71.20;102403.56;4958931;28;45714;-87
2021/12/13 09:52:03;;;;;;;;;7.33;7.33;;;;;12.06;71.13;102400.22;4955237;28;45418;-87
2021/12/13 09:54:38;;;;;;;;;5.00;5.00;;;;;12.02;70.40;102398.22;4954323;28;45646;-87
2021/12/13 09:57:10;;;;;;;;;7.67;4.00;;;;;12.04;69.88;102414.09;4957635;28;46346;-87
2021/12/13 09:59:41;;;;;;;;;4.00;4.00;;;;;12.03;71.06;102415.84;4952765;28;45480;-87
2021/12/13 10:02:20;;;;;;;;;3.00;3.00;;;;;12.02;70.22;102406.09;4948395;28;45506;-87
2021/12/13 10:04:49;;;;;;;;;4.00;3.00;;;;;11.98;69.59;102401.47;4951471;28;45732;-88
2021/12/13 10:07:34;;;;;;;;;5.00;3.00;;;;;12.01;69.41;102412.16;4946133;28;47539;-88
2021/12/13 10:10:13;;;;;;;;;6.00;4.00;;;;;11.95;69.10;102403.88;4930612;28;45405;-87
2021/12/13 10:12:44;;;;;;;;;4.00;4.00;;;;;11.92;69.37;102406.31;4943527;28;45582;-87
2021/12/13 10:15:18;;;;;;;;;4.67;4.67;;;;;11.82;67.86;102403.06;4939103;28;45441;-88
2021/12/13 10:17:47;;;;;;;;;5.33;5.00;;;;;11.77;69.64;102409.75;4939787;28;46584;-87
2021/12/13 10:20:19;;;;;;;;;9.00;6.33;;;;;11.66;70.10;102394.94;4941883;28;45585;-88
2021/12/13 10:22:46;;;;;;;;;6.67;6.67;;;;;11.65;69.93;102401.91;4945163;28;45395;-88
2021/12/13 10:25:26;;;;;;;;;8.67;7.00;;;;;11.58;70.12;102397.97;4943244;28;45736;-88
2021/12/13 10:27:53;;;;;;;;;8.33;8.33;;;;;11.60;70.39;102393.72;4948208;28;47677;-88
2021/12/13 10:30:29;;;;;;;;;6.33;4.00;;;;;11.61;69.55;102392.00;4945231;28;45558;-87
2021/12/13 10:32:55;;;;;;;;;5.00;5.00;;;;;11.62;70.08;102383.31;4938092;28;45546;-88
2021/12/13 10:35:35;;;;;;;;;5.00;5.00;;;;;11.57;69.41;102385.59;4928813;28;45441;-88
2021/12/13 10:38:10;;;;;;;;;4.00;3.67;;;;;11.60;69.85;102388.44;4929171;28;46800;-88
2021/12/13 10:40:38;;;;;;;;;6.33;5.00;;;;;11.62;69.76;102402.63;4927188;28;45431;-88
2021/12/13 10:43:15;;;;;;;;;5.00;5.00;;;;;11.61;69.51;102392.91;4927379;28;45632;-88
2021/12/13 10:45:46;;;;;;;;;6.00;5.00;;;;;11.62;69.59;102392.09;4928256;28;45567;-88
2021/12/13 10:48:15;;;;;;;;;7.67;5.33;;;;;11.64;68.72;102396.56;4926157;28;46750;-88
2021/12/13 10:50:48;;;;;;;;;6.33;6.33;;;;;11.67;67.84;102400.31;4938454;28;45578;-88
2021/12/13 10:53:18;;;;;;;;;4.00;4.00;;;;;11.69;69.29;102397.78;4926044;28;45638;-87
2021/12/13 10:55:51;;;;;;;;;4.00;4.00;;;;;11.73;68.56;102394.53;4930790;28;45522;-88
2021/12/13 10:58:23;;;;;;;;;9.00;6.67;;;;;11.77;68.29;102393.03;4927483;28;46590;-87
2021/12/13 11:00:55;;;;;;;;;9.00;8.33;;;;;11.77;68.53;102391.31;4924982;28;45676;-89
2021/12/13 11:03:26;;;;;;;;;7.67;7.67;;;;;11.76;68.95;102396.47;4942239;28;45395;-88
2021/12/13 11:05:52;;;;;;;;;11.33;6.33;;;;;11.71;68.44;102388.28;4929236;28;45443;-89
2021/12/13 11:08:19;;;;;;;;;5.67;5.00;;;;;11.70;68.01;102399.63;4927108;28;46573;-90
2021/12/13 11:10:52;;;;;;;;;8.00;5.33;;;;;11.64;68.25;102397.47;4932001;28;45466;-89
2021/12/13 11:13:19;;;;;;;;;6.33;6.33;;;;;11.63;68.11;102398.28;4927819;28;45754;-89
2021/12/13 11:15:49;;;;;;;;;6.33;6.33;;;;;11.60;69.38;102396.34;4925513;28;45479;-88
2021/12/13 11:18:20;;;;;;;;;5.33;5.33;;;;;11.62;69.50;102386.84;4934767;28;46730;-88
2021/12/13 11:20:50;;;;;;;;;4.00;4.00;;;;;11.69;68.94;102397.78;4931625;28;45670;-88
2021/12/13 11:23:20;;;;;;;;;4.00;4.00;;;;;11.70;69.44;102404.88;4925185;28;45512;-88
2021/12/13 11:25:54;;;;;;;;;5.00;3.33;;;;;11.71;68.87;102393.53;4930959;28;45487;-88
2021/12/13 11:28:22;;;;;;;;;3.00;3.00;;;;;11.68;67.22;102388.06;4942290;28;48479;-88
2021/12/13 11:30:49;;;;;;;;;3.33;3.33;;;;;11.67;68.86;102389.81;4929049;28;45424;-89
2021/12/13 11:33:22;;;;;;;;;4.00;4.00;;;;;11.71;68.47;102388.28;4942746;28;45516;-87
2021/12/13 11:36:06;;;;;;;;;5.00;5.00;;;;;11.76;68.50;102392.13;4944099;28;45404;-88
2021/12/13 11:38:56;;;;;;;;;9.00;6.33;;;;;11.74;67.75;102385.84;4943894;28;47120;-88
2021/12/13 11:41:52;;;;;;;;;5.00;5.00;;;;;11.70;68.71;102394.34;4929874;28;45468;-87
2021/12/13 11:44:27;;;;;;;;;8.00;5.00;;;;;11.67;68.27;102384.53;4930428;28;45467;-88
2021/12/13 11:47:04;;;;;;;;;11.00;9.00;;;;;11.65;68.09;102386.13;4931431;28;45539;-87
2021/12/13 11:49:45;;;;;;;;;4.00;4.00;;;;;11.61;68.55;102377.13;4953784;28;48289;-87
2021/12/13 11:52:45;;;;;;;;;4.67;4.00;;;;;11.71;69.05;102383.00;4947065;28;45688;-87
2021/12/13 11:55:57;;;;;;;;;5.00;5.00;;;;;11.77;67.80;102374.63;4919292;28;46409;-86
2021/12/13 11:58:42;;;;;;;;;6.33;4.33;;;;;11.81;68.98;102369.66;4919759;28;45329;-92
2021/12/13 12:01:47;;;;;;;;;5.00;3.00;;;;;11.85;68.00;102363.78;4920034;28;45704;-91
2021/12/13 12:04:50;;;;;;;;;8.00;6.33;;;;;11.89;67.55;102359.66;4930032;28;46973;-87